sensor_id;sensor_type;location;lat;lon;timestamp;pressure;altitude;pressure_sealevel;temperature;humidity
41513;BME280;27244;59.940;30.280;2023-04-08T00:00:07;102736.41;;;24.25;21.22
41513;BME280;27244;59.940;30.280;2023-04-08T00:02:39;102744.06;;;24.25;21.28
41513;BME280;27244;59.940;30.280;2023-04-08T00:05:06;102742.44;;;24.24;21.07
41513;BME280;27244;59.940;30.280;2023-04-08T00:07:35;102747.69;;;24.25;20.84
41513;BME280;27244;59.940;30.280;2023-04-08T00:10:02;102740.44;;;24.24;21.08
41513;BME280;27244;59.940;30.280;2023-04-08T00:12:32;102744.06;;;24.25;21.24
41513;BME280;27244;59.940;30.280;2023-04-08T00:15:02;102743.25;;;24.24;21.64
41513;BME280;27244;59.940;30.280;2023-04-08T00:17:29;102736.41;;;24.22;21.19
41513;BME280;27244;59.940;30.280;2023-04-08T00:19:56;102736.00;;;24.23;21.35
41513;BME280;27244;59.940;30.280;2023-04-08T00:22:23;102745.69;;;24.22;20.96
41513;BME280;27244;59.940;30.280;2023-04-08T00:24:50;102747.69;;;24.22;21.21
41513;BME280;27244;59.940;30.280;2023-04-08T00:27:17;102744.06;;;24.25;21.22
41513;BME280;27244;59.940;30.280;2023-04-08T00:29:45;102748.06;;;24.24;21.01
41513;BME280;27244;59.940;30.280;2023-04-08T00:32:12;102736.78;;;24.20;21.10
41513;BME280;27244;59.940;30.280;2023-04-08T00:34:40;102747.28;;;24.23;21.04
41513;BME280;27244;59.940;30.280;2023-04-08T00:37:07;102739.63;;;24.24;21.13
41513;BME280;27244;59.940;30.280;2023-04-08T00:39:33;102738.41;;;24.21;21.02
41513;BME280;27244;59.940;30.280;2023-04-08T00:42:01;102746.47;;;24.23;21.22
41513;BME280;27244;59.940;30.280;2023-04-08T00:44:28;102746.06;;;24.21;21.15
41513;BME280;27244;59.940;30.280;2023-04-08T00:46:56;102743.66;;;24.23;21.13
41513;BME280;27244;59.940;30.280;2023-04-08T00:49:24;102741.66;;;24.20;20.97
41513;BME280;27244;59.940;30.280;2023-04-08T00:51:53;102748.50;;;24.19;20.90
41513;BME280;27244;59.940;30.280;2023-04-08T00:54:20;102732.34;;;24.12;20.80
41513;BME280;27244;59.940;30.280;2023-04-08T00:56:47;102738.41;;;24.18;20.96
41513;BME280;27244;59.940;30.280;2023-04-08T00:59:17;102741.66;;;24.20;20.78
41513;BME280;27244;59.940;30.280;2023-04-08T01:01:50;102742.03;;;24.22;21.19
41513;BME280;27244;59.940;30.280;2023-04-08T01:04:30;102735.22;;;24.23;21.02
41513;BME280;27244;59.940;30.280;2023-04-08T01:07:05;102740.84;;;24.23;20.79
41513;BME280;27244;59.940;30.280;2023-04-08T01:09:37;102738.81;;;24.20;20.98
41513;BME280;27244;59.940;30.280;2023-04-08T01:12:07;102726.31;;;24.14;20.67
41513;BME280;27244;59.940;30.280;2023-04-08T01:14:38;102736.78;;;24.20;20.80
41513;BME280;27244;59.940;30.280;2023-04-08T01:17:08;102737.19;;;24.15;20.85
41513;BME280;27244;59.940;30.280;2023-04-08T01:19:39;102737.22;;;24.19;21.21
41513;BME280;27244;59.940;30.280;2023-04-08T01:22:16;102739.22;;;24.18;20.72
41513;BME280;27244;59.940;30.280;2023-04-08T01:24:46;102730.31;;;24.13;20.80
41513;BME280;27244;59.940;30.280;2023-04-08T01:27:18;102732.38;;;24.19;20.75
41513;BME280;27244;59.940;30.280;2023-04-08T01:29:46;102727.13;;;24.18;20.84
41513;BME280;27244;59.940;30.280;2023-04-08T01:32:15;102729.13;;;24.14;20.83
41513;BME280;27244;59.940;30.280;2023-04-08T01:34:45;102736.00;;;24.16;20.89
41513;BME280;27244;59.940;30.280;2023-04-08T01:37:14;102720.69;;;24.17;20.88
41513;BME280;27244;59.940;30.280;2023-04-08T01:39:41;102723.09;;;24.15;20.95
41513;BME280;27244;59.940;30.280;2023-04-08T01:42:11;102727.13;;;24.14;20.89
41513;BME280;27244;59.940;30.280;2023-04-08T01:44:41;102729.56;;;24.16;20.80
41513;BME280;27244;59.940;30.280;2023-04-08T01:47:09;102723.50;;;24.14;20.81
41513;BME280;27244;59.940;30.280;2023-04-08T01:49:39;102723.50;;;24.14;20.66
41513;BME280;27244;59.940;30.280;2023-04-08T01:52:08;102725.50;;;24.13;20.80
41513;BME280;27244;59.940;30.280;2023-04-08T01:54:36;102719.81;;;24.10;20.73
41513;BME280;27244;59.940;30.280;2023-04-08T01:57:04;102725.06;;;24.11;20.66
41513;BME280;27244;59.940;30.280;2023-04-08T01:59:34;102727.13;;;24.14;20.80
41513;BME280;27244;59.940;30.280;2023-04-08T02:02:08;102718.63;;;24.11;20.80
41513;BME280;27244;59.940;30.280;2023-04-08T02:04:35;102721.06;;;24.09;20.65
41513;BME280;27244;59.940;30.280;2023-04-08T02:07:03;102710.16;;;24.07;20.68
41513;BME280;27244;59.940;30.280;2023-04-08T02:09:31;102719.81;;;24.10;20.73
41513;BME280;27244;59.940;30.280;2023-04-08T02:11:58;102718.63;;;24.11;20.66
41513;BME280;27244;59.940;30.280;2023-04-08T02:14:26;102713.78;;;24.08;20.76
41513;BME280;27244;59.940;30.280;2023-04-08T02:16:58;102716.63;;;24.11;20.61
41513;BME280;27244;59.940;30.280;2023-04-08T02:19:30;102707.75;;;24.09;20.48
41513;BME280;27244;59.940;30.280;2023-04-08T02:22:04;102706.97;;;24.09;20.65
41513;BME280;27244;59.940;30.280;2023-04-08T02:24:34;102710.97;;;24.11;20.72
41513;BME280;27244;59.940;30.280;2023-04-08T02:27:03;102715.00;;;24.10;20.55
41513;BME280;27244;59.940;30.280;2023-04-08T02:29:31;102708.53;;;24.10;20.56
41513;BME280;27244;59.940;30.280;2023-04-08T02:32:00;102718.63;;;24.11;20.66
41513;BME280;27244;59.940;30.280;2023-04-08T02:34:29;102709.34;;;24.10;20.61
41513;BME280;27244;59.940;30.280;2023-04-08T02:36:57;102706.94;;;24.05;20.64
41513;BME280;27244;59.940;30.280;2023-04-08T02:39:29;102704.53;;;24.11;20.62
41513;BME280;27244;59.940;30.280;2023-04-08T02:41:56;102715.00;;;24.10;20.53
41513;BME280;27244;59.940;30.280;2023-04-08T02:44:23;102715.41;;;24.09;20.55
41513;BME280;27244;59.940;30.280;2023-04-08T02:46:51;102705.34;;;24.08;20.62
41513;BME280;27244;59.940;30.280;2023-04-08T02:49:18;102703.72;;;24.07;20.53
41513;BME280;27244;59.940;30.280;2023-04-08T02:51:46;102714.59;;;24.08;20.46
41513;BME280;27244;59.940;30.280;2023-04-08T02:54:13;102709.34;;;24.07;20.44
41513;BME280;27244;59.940;30.280;2023-04-08T02:56:40;102702.91;;;24.02;20.51
41513;BME280;27244;59.940;30.280;2023-04-08T02:59:07;102703.72;;;24.07;20.54
41513;BME280;27244;59.940;30.280;2023-04-08T03:01:33;102705.34;;;24.08;20.43
41513;BME280;27244;59.940;30.280;2023-04-08T03:04:00;102703.72;;;24.07;20.43
41513;BME280;27244;59.940;30.280;2023-04-08T03:06:27;102702.91;;;24.06;20.36
41513;BME280;27244;59.940;30.280;2023-04-08T03:08:57;102703.72;;;24.07;20.49
41513;BME280;27244;59.940;30.280;2023-04-08T03:11:24;102700.50;;;24.05;20.49
41513;BME280;27244;59.940;30.280;2023-04-08T03:13:51;102702.09;;;24.06;20.50
41513;BME280;27244;59.940;30.280;2023-04-08T03:16:18;102696.06;;;24.03;20.54
41513;BME280;27244;59.940;30.280;2023-04-08T03:18:45;102705.72;;;24.02;20.46
41513;BME280;27244;59.940;30.280;2023-04-08T03:21:12;102708.97;;;24.05;20.57
41513;BME280;27244;59.940;30.280;2023-04-08T03:23:39;102701.31;;;24.05;20.61
41513;BME280;27244;59.940;30.280;2023-04-08T03:26:08;102700.09;;;24.06;20.48
41513;BME280;27244;59.940;30.280;2023-04-08T03:28:35;102702.09;;;24.06;20.48
41513;BME280;27244;59.940;30.280;2023-04-08T03:31:02;102695.66;;;24.05;20.56
41513;BME280;27244;59.940;30.280;2023-04-08T03:33:29;102700.09;;;24.06;20.42
41513;BME280;27244;59.940;30.280;2023-04-08T03:35:56;102700.50;;;24.05;20.38
41513;BME280;27244;59.940;30.280;2023-04-08T03:38:23;102701.31;;;24.01;20.48
41513;BME280;27244;59.940;30.280;2023-04-08T03:40:50;102696.06;;;24.03;20.45
41513;BME280;27244;59.940;30.280;2023-04-08T03:43:18;102696.44;;;24.02;20.44
41513;BME280;27244;59.940;30.280;2023-04-08T03:45:46;102705.31;;;24.00;20.23
41513;BME280;27244;59.940;30.280;2023-04-08T03:48:13;102705.31;;;24.00;20.36
41513;BME280;27244;59.940;30.280;2023-04-08T03:50:40;102712.59;;;24.01;20.33
41513;BME280;27244;59.940;30.280;2023-04-08T03:53:07;102705.72;;;23.99;20.36
41513;BME280;27244;59.940;30.280;2023-04-08T03:55:35;102712.97;;;24.00;20.34
41513;BME280;27244;59.940;30.280;2023-04-08T03:58:02;102704.91;;;23.98;20.40
41513;BME280;27244;59.940;30.280;2023-04-08T04:00:31;102710.97;;;24.00;20.23
41513;BME280;27244;59.940;30.280;2023-04-08T04:02:58;102704.13;;;23.98;20.38
41513;BME280;27244;59.940;30.280;2023-04-08T04:05:25;102717.78;;;23.99;20.27
41513;BME280;27244;59.940;30.280;2023-04-08T04:07:52;102707.72;;;23.98;20.26
41513;BME280;27244;59.940;30.280;2023-04-08T04:10:19;102706.53;;;23.99;20.26
41513;BME280;27244;59.940;30.280;2023-04-08T04:12:46;102704.91;;;23.98;20.28
41513;BME280;27244;59.940;30.280;2023-04-08T04:15:15;102701.31;;;23.98;20.25
41513;BME280;27244;59.940;30.280;2023-04-08T04:17:43;102709.75;;;23.98;20.12
41513;BME280;27244;59.940;30.280;2023-04-08T04:20:11;102711.75;;;23.97;20.34
41513;BME280;27244;59.940;30.280;2023-04-08T04:22:38;102705.31;;;23.93;20.28
41513;BME280;27244;59.940;30.280;2023-04-08T04:25:08;102708.53;;;23.95;20.44
41513;BME280;27244;59.940;30.280;2023-04-08T04:27:35;102708.94;;;23.97;20.51
41513;BME280;27244;59.940;30.280;2023-04-08T04:30:03;102700.88;;;23.96;20.26
41513;BME280;27244;59.940;30.280;2023-04-08T04:32:30;102707.31;;;23.96;20.35
41513;BME280;27244;59.940;30.280;2023-04-08T04:34:58;102712.97;;;23.96;20.47
41513;BME280;27244;59.940;30.280;2023-04-08T04:37:25;102706.94;;;23.94;20.48
41513;BME280;27244;59.940;30.280;2023-04-08T04:39:52;102708.94;;;23.94;20.33
41513;BME280;27244;59.940;30.280;2023-04-08T04:42:19;102699.66;;;23.90;20.20
41513;BME280;27244;59.940;30.280;2023-04-08T04:44:46;102696.03;;;23.86;20.41
41513;BME280;27244;59.940;30.280;2023-04-08T04:47:13;102712.56;;;23.94;20.31
41513;BME280;27244;59.940;30.280;2023-04-08T04:49:40;102704.50;;;23.93;20.39
41513;BME280;27244;59.940;30.280;2023-04-08T04:52:09;102705.69;;;23.92;20.36
41513;BME280;27244;59.940;30.280;2023-04-08T04:54:36;102713.34;;;23.91;20.28
41513;BME280;27244;59.940;30.280;2023-04-08T04:57:03;102707.31;;;23.93;20.55
41513;BME280;27244;59.940;30.280;2023-04-08T04:59:30;102702.06;;;23.91;20.28
41513;BME280;27244;59.940;30.280;2023-04-08T05:01:57;102702.88;;;23.92;20.39
41513;BME280;27244;59.940;30.280;2023-04-08T05:04:24;102695.63;;;23.87;20.39
41513;BME280;27244;59.940;30.280;2023-04-08T05:06:51;102699.66;;;23.90;20.32
41513;BME280;27244;59.940;30.280;2023-04-08T05:09:19;102706.91;;;23.91;20.40
41513;BME280;27244;59.940;30.280;2023-04-08T05:11:46;102709.31;;;23.89;20.21
41513;BME280;27244;59.940;30.280;2023-04-08T05:14:13;102696.03;;;23.89;20.35
41513;BME280;27244;59.940;30.280;2023-04-08T05:16:40;102702.06;;;23.88;20.12
41513;BME280;27244;59.940;30.280;2023-04-08T05:19:07;102699.25;;;23.88;20.20
41513;BME280;27244;59.940;30.280;2023-04-08T05:21:34;102707.31;;;23.86;20.30
41513;BME280;27244;59.940;30.280;2023-04-08T05:24:01;102692.78;;;23.80;20.19
41513;BME280;27244;59.940;30.280;2023-04-08T05:26:29;102710.13;;;23.89;20.47
41513;BME280;27244;59.940;30.280;2023-04-08T05:28:57;102696.03;;;23.86;20.27
41513;BME280;27244;59.940;30.280;2023-04-08T05:31:24;102690.75;;;23.81;20.29
41513;BME280;27244;59.940;30.280;2023-04-08T05:33:51;102702.06;;;23.84;20.05
41513;BME280;27244;59.940;30.280;2023-04-08T05:36:18;102709.72;;;23.87;20.25
41513;BME280;27244;59.940;30.280;2023-04-08T05:38:45;102699.25;;;23.91;20.53
41513;BME280;27244;59.940;30.280;2023-04-08T05:41:19;102702.88;;;23.88;20.97
41513;BME280;27244;59.940;30.280;2023-04-08T05:43:47;102701.28;;;23.87;20.77
41513;BME280;27244;59.940;30.280;2023-04-08T05:46:14;102701.28;;;23.87;21.10
41513;BME280;27244;59.940;30.280;2023-04-08T05:48:41;102689.56;;;23.85;21.36
41513;BME280;27244;59.940;30.280;2023-04-08T05:51:12;102700.06;;;23.92;21.43
41513;BME280;27244;59.940;30.280;2023-04-08T05:53:40;102699.25;;;23.91;21.53
41513;BME280;27244;59.940;30.280;2023-04-08T05:56:07;102694.03;;;23.93;22.02
41513;BME280;27244;59.940;30.280;2023-04-08T05:58:36;102698.06;;;23.96;22.01
41513;BME280;27244;59.940;30.280;2023-04-08T06:01:07;102698.06;;;23.99;21.95
41513;BME280;27244;59.940;30.280;2023-04-08T06:03:34;102686.78;;;23.96;22.17
41513;BME280;27244;59.940;30.280;2023-04-08T06:06:08;102677.50;;;23.92;22.13
41513;BME280;27244;59.940;30.280;2023-04-08T06:08:36;102695.66;;;24.01;22.42
41513;BME280;27244;59.940;30.280;2023-04-08T06:11:03;102698.50;;;24.01;22.53
41513;BME280;27244;59.940;30.280;2023-04-08T06:13:30;102683.97;;;23.99;22.73
41513;BME280;27244;59.940;30.280;2023-04-08T06:15:58;102701.31;;;24.01;22.82
41513;BME280;27244;59.940;30.280;2023-04-08T06:18:26;102694.88;;;24.05;22.92
41513;BME280;27244;59.940;30.280;2023-04-08T06:20:53;102690.81;;;24.02;22.96
41513;BME280;27244;59.940;30.280;2023-04-08T06:23:20;102693.25;;;24.03;22.98
41513;BME280;27244;59.940;30.280;2023-04-08T06:25:47;102692.41;;;23.99;23.20
41513;BME280;27244;59.940;30.280;2023-04-08T06:28:14;102699.69;;;24.04;23.37
41513;BME280;27244;59.940;30.280;2023-04-08T06:30:41;102698.06;;;24.10;23.49
41513;BME280;27244;59.940;30.280;2023-04-08T06:33:08;102690.44;;;24.11;23.52
41513;BME280;27244;59.940;30.280;2023-04-08T06:35:40;102703.38;;;24.15;23.49
41513;BME280;27244;59.940;30.280;2023-04-08T06:38:06;102696.13;;;24.25;22.95
41513;BME280;27244;59.940;30.280;2023-04-08T06:40:33;102683.97;;;24.10;23.61
41513;BME280;27244;59.940;30.280;2023-04-08T06:43:01;102693.28;;;24.14;23.92
41513;BME280;27244;59.940;30.280;2023-04-08T06:45:34;102691.66;;;24.17;23.81
41513;BME280;27244;59.940;30.280;2023-04-08T06:48:01;102687.25;;;24.16;24.04
41513;BME280;27244;59.940;30.280;2023-04-08T06:50:28;102687.25;;;24.16;24.16
41513;BME280;27244;59.940;30.280;2023-04-08T06:52:56;102683.22;;;24.17;24.07
41513;BME280;27244;59.940;30.280;2023-04-08T06:55:23;102664.66;;;24.05;24.19
41513;BME280;27244;59.940;30.280;2023-04-08T06:57:50;102689.28;;;24.19;24.32
41513;BME280;27244;59.940;30.280;2023-04-08T07:00:20;102670.69;;;24.11;24.21
41513;BME280;27244;59.940;30.280;2023-04-08T07:02:49;102688.84;;;24.20;24.46
41513;BME280;27244;59.940;30.280;2023-04-08T07:05:17;102691.28;;;24.22;24.42
41513;BME280;27244;59.940;30.280;2023-04-08T07:07:46;102678.81;;;24.23;24.52
41513;BME280;27244;59.940;30.280;2023-04-08T07:10:14;102691.66;;;24.24;24.59
41513;BME280;27244;59.940;30.280;2023-04-08T07:12:41;102678.81;;;24.23;24.72
41513;BME280;27244;59.940;30.280;2023-04-08T07:15:09;102688.47;;;24.25;24.78
41513;BME280;27244;59.940;30.280;2023-04-08T07:17:36;102684.03;;;24.24;24.88
41513;BME280;27244;59.940;30.280;2023-04-08T07:20:05;102687.25;;;24.26;24.79
41513;BME280;27244;59.940;30.280;2023-04-08T07:22:32;102676.38;;;24.25;24.75
41513;BME280;27244;59.940;30.280;2023-04-08T07:24:59;102681.19;;;24.28;25.09
41513;BME280;27244;59.940;30.280;2023-04-08T07:27:27;102684.03;;;24.28;25.12
41513;BME280;27244;59.940;30.280;2023-04-08T07:29:54;102686.03;;;24.27;25.20
41513;BME280;27244;59.940;30.280;2023-04-08T07:32:21;102689.28;;;24.26;25.16
41513;BME280;27244;59.940;30.280;2023-04-08T07:34:48;102684.84;;;24.28;25.20
41513;BME280;27244;59.940;30.280;2023-04-08T07:37:15;102688.47;;;24.29;25.26
41513;BME280;27244;59.940;30.280;2023-04-08T07:39:42;102690.09;;;24.30;25.40
41513;BME280;27244;59.940;30.280;2023-04-08T07:42:10;102684.84;;;24.32;25.82
41513;BME280;27244;59.940;30.280;2023-04-08T07:44:38;102680.41;;;24.24;26.35
41513;BME280;27244;59.940;30.280;2023-04-08T07:47:05;102688.88;;;24.31;25.83
41513;BME280;27244;59.940;30.280;2023-04-08T07:49:32;102690.09;;;24.30;25.89
41513;BME280;27244;59.940;30.280;2023-04-08T07:51:59;102681.19;;;24.31;25.84
41513;BME280;27244;59.940;30.280;2023-04-08T07:54:26;102680.00;;;24.32;25.67
41513;BME280;27244;59.940;30.280;2023-04-08T07:56:53;102684.44;;;24.33;25.63
41513;BME280;27244;59.940;30.280;2023-04-08T07:59:20;102678.00;;;24.33;25.77
41513;BME280;27244;59.940;30.280;2023-04-08T08:01:48;102684.03;;;24.35;25.47
41513;BME280;27244;59.940;30.280;2023-04-08T08:04:15;102681.19;;;24.35;25.83
41513;BME280;27244;59.940;30.280;2023-04-08T08:06:43;102672.75;;;24.35;25.73
41513;BME280;27244;59.940;30.280;2023-04-08T08:09:10;102673.16;;;24.37;25.69
41513;BME280;27244;59.940;30.280;2023-04-08T08:11:37;102685.66;;;24.36;25.76
41513;BME280;27244;59.940;30.280;2023-04-08T08:14:04;102669.91;;;24.35;25.53
41513;BME280;27244;59.940;30.280;2023-04-08T08:16:32;102670.34;;;24.37;25.72
41513;BME280;27244;59.940;30.280;2023-04-08T08:19:00;102665.09;;;24.35;25.81
41513;BME280;27244;59.940;30.280;2023-04-08T08:21:28;102674.78;;;24.38;25.82
41513;BME280;27244;59.940;30.280;2023-04-08T08:23:56;102669.13;;;24.34;25.95
41513;BME280;27244;59.940;30.280;2023-04-08T08:26:27;102679.63;;;24.41;25.79
41513;BME280;27244;59.940;30.280;2023-04-08T08:29:06;102681.63;;;24.44;25.73
41513;BME280;27244;59.940;30.280;2023-04-08T08:31:53;102665.09;;;24.35;25.67
41513;BME280;27244;59.940;30.280;2023-04-08T08:34:29;102630.88;;;24.16;25.58
41513;BME280;27244;59.940;30.280;2023-04-08T08:36:56;102670.72;;;24.39;25.86
41513;BME280;27244;59.940;30.280;2023-04-08T08:39:26;102657.88;;;24.34;25.79
41513;BME280;27244;59.940;30.280;2023-04-08T08:41:53;102667.53;;;24.40;25.98
41513;BME280;27244;59.940;30.280;2023-04-08T08:44:21;102673.56;;;24.39;25.97
41513;BME280;27244;59.940;30.280;2023-04-08T08:46:48;102661.06;;;24.40;26.03
41513;BME280;27244;59.940;30.280;2023-04-08T08:49:15;102654.63;;;24.36;26.08
41513;BME280;27244;59.940;30.280;2023-04-08T08:51:44;102669.53;;;24.43;26.13
41513;BME280;27244;59.940;30.280;2023-04-08T08:54:12;102657.84;;;24.41;25.98
41513;BME280;27244;59.940;30.280;2023-04-08T08:56:40;102665.91;;;24.43;26.05
41513;BME280;27244;59.940;30.280;2023-04-08T08:59:07;102661.06;;;24.43;26.11
41513;BME280;27244;59.940;30.280;2023-04-08T09:01:36;102659.06;;;24.44;26.29
41513;BME280;27244;59.940;30.280;2023-04-08T09:04:11;102665.50;;;24.48;26.22
41513;BME280;27244;59.940;30.280;2023-04-08T09:06:41;102664.28;;;24.45;26.28
41513;BME280;27244;59.940;30.280;2023-04-08T09:09:09;102665.50;;;24.44;26.33
41513;BME280;27244;59.940;30.280;2023-04-08T09:11:37;102656.63;;;24.46;26.37
41513;BME280;27244;59.940;30.280;2023-04-08T09:14:16;102647.75;;;24.47;26.53
41513;BME280;27244;59.940;30.280;2023-04-08T09:16:43;102654.22;;;24.48;26.12
41513;BME280;27244;59.940;30.280;2023-04-08T09:19:11;102644.53;;;24.45;26.25
41513;BME280;27244;59.940;30.280;2023-04-08T09:21:39;102648.97;;;24.50;26.31
41513;BME280;27244;59.940;30.280;2023-04-08T09:24:06;102638.88;;;24.45;26.29
41513;BME280;27244;59.940;30.280;2023-04-08T09:26:35;102646.56;;;24.52;26.11
41513;BME280;27244;59.940;30.280;2023-04-08T09:29:04;102632.84;;;24.47;26.41
41513;BME280;27244;59.940;30.280;2023-04-08T09:31:33;102642.50;;;24.49;26.33
41513;BME280;27244;59.940;30.280;2023-04-08T09:34:08;102635.28;;;24.52;26.43
41513;BME280;27244;59.940;30.280;2023-04-08T09:36:35;102630.84;;;24.44;26.42
41513;BME280;27244;59.940;30.280;2023-04-08T09:39:04;102643.31;;;24.46;26.98
41513;BME280;27244;59.940;30.280;2023-04-08T09:41:34;102631.22;;;24.46;27.09
41513;BME280;27244;59.940;30.280;2023-04-08T09:44:03;102632.84;;;24.40;27.80
41513;BME280;27244;59.940;30.280;2023-04-08T09:46:32;102621.56;;;24.40;27.09
41513;BME280;27244;59.940;30.280;2023-04-08T09:49:05;102627.22;;;24.47;26.93
41513;BME280;27244;59.940;30.280;2023-04-08T09:51:39;102630.03;;;24.50;26.88
41513;BME280;27244;59.940;30.280;2023-04-08T09:54:13;102627.59;;;24.49;27.01
41513;BME280;27244;59.940;30.280;2023-04-08T09:56:50;102626.41;;;24.50;26.90
41513;BME280;27244;59.940;30.280;2023-04-08T09:59:23;102616.72;;;24.47;27.16
41513;BME280;27244;59.940;30.280;2023-04-08T10:01:53;102628.81;;;24.48;27.39
41513;BME280;27244;59.940;30.280;2023-04-08T10:04:22;102619.94;;;24.46;27.42
41513;BME280;27244;59.940;30.280;2023-04-08T10:06:53;102619.13;;;24.45;27.26
41513;BME280;27244;59.940;30.280;2023-04-08T10:09:23;102627.22;;;24.47;27.23
41513;BME280;27244;59.940;30.280;2023-04-08T10:11:51;102621.94;;;24.49;27.50
41513;BME280;27244;59.940;30.280;2023-04-08T10:14:19;102621.97;;;24.45;27.36
41513;BME280;27244;59.940;30.280;2023-04-08T10:16:47;102617.13;;;24.46;27.37
41513;BME280;27244;59.940;30.280;2023-04-08T10:19:35;102619.56;;;24.51;27.29
41513;BME280;27244;59.940;30.280;2023-04-08T10:22:03;102615.53;;;24.45;27.63
41513;BME280;27244;59.940;30.280;2023-04-08T10:24:30;102621.97;;;24.45;27.61
41513;BME280;27244;59.940;30.280;2023-04-08T10:26:58;102627.22;;;24.47;27.69
41513;BME280;27244;59.940;30.280;2023-04-08T10:29:36;102621.16;;;24.52;27.68
41513;BME280;27244;59.940;30.280;2023-04-08T10:32:03;102617.53;;;24.48;27.64
41513;BME280;27244;59.940;30.280;2023-04-08T10:34:30;102613.50;;;24.49;27.77
41513;BME280;27244;59.940;30.280;2023-04-08T10:36:57;102618.34;;;24.48;27.66
41513;BME280;27244;59.940;30.280;2023-04-08T10:39:26;102613.50;;;24.53;28.20
41513;BME280;27244;59.940;30.280;2023-04-08T10:41:53;102605.44;;;24.51;27.98
41513;BME280;27244;59.940;30.280;2023-04-08T10:44:24;102609.06;;;24.55;28.05
41513;BME280;27244;59.940;30.280;2023-04-08T10:46:53;102605.44;;;24.51;28.08
41513;BME280;27244;59.940;30.280;2023-04-08T10:49:20;102607.88;;;24.53;28.01
41513;BME280;27244;59.940;30.280;2023-04-08T10:51:47;102605.81;;;24.53;28.06
41513;BME280;27244;59.940;30.280;2023-04-08T10:54:16;102602.22;;;24.53;28.01
41513;BME280;27244;59.940;30.280;2023-04-08T10:56:44;102596.56;;;24.49;27.98
41513;BME280;27244;59.940;30.280;2023-04-08T10:59:13;102603.00;;;24.49;28.18
41513;BME280;27244;59.940;30.280;2023-04-08T11:01:43;102596.59;;;24.53;28.19
41513;BME280;27244;59.940;30.280;2023-04-08T11:04:12;102592.53;;;24.50;28.26
41513;BME280;27244;59.940;30.280;2023-04-08T11:06:41;102595.78;;;24.52;28.19
41513;BME280;27244;59.940;30.280;2023-04-08T11:09:09;102596.16;;;24.54;28.26
41513;BME280;27244;59.940;30.280;2023-04-08T11:11:36;102592.53;;;24.54;27.79
41513;BME280;27244;59.940;30.280;2023-04-08T11:14:03;102591.31;;;24.55;28.39
41513;BME280;27244;59.940;30.280;2023-04-08T11:16:30;102594.97;;;24.55;28.11
41513;BME280;27244;59.940;30.280;2023-04-08T11:19:01;102582.88;;;24.51;28.37
41513;BME280;27244;59.940;30.280;2023-04-08T11:21:29;102585.28;;;24.49;28.82
41513;BME280;27244;59.940;30.280;2023-04-08T11:23:57;102587.69;;;24.54;28.03
41513;BME280;27244;59.940;30.280;2023-04-08T11:26:24;102583.69;;;24.48;27.73
41513;BME280;27244;59.940;30.280;2023-04-08T11:28:53;102590.91;;;24.49;27.35
41513;BME280;27244;59.940;30.280;2023-04-08T11:31:23;102587.72;;;24.47;27.46
41513;BME280;27244;59.940;30.280;2023-04-08T11:33:53;102589.34;;;24.48;27.67
41513;BME280;27244;59.940;30.280;2023-04-08T11:36:24;102585.69;;;24.47;27.26
41513;BME280;27244;59.940;30.280;2023-04-08T11:38:53;102586.09;;;24.46;26.99
41513;BME280;27244;59.940;30.280;2023-04-08T11:41:22;102577.66;;;24.39;26.85
41513;BME280;27244;59.940;30.280;2023-04-08T11:43:55;102583.69;;;24.48;26.57
41513;BME280;27244;59.940;30.280;2023-04-08T11:46:23;102575.25;;;24.41;26.69
41513;BME280;27244;59.940;30.280;2023-04-08T11:48:57;102577.22;;;24.47;26.56
41513;BME280;27244;59.940;30.280;2023-04-08T11:51:26;102578.88;;;24.45;26.75
41513;BME280;27244;59.940;30.280;2023-04-08T11:53:53;102576.03;;;24.45;26.83
41513;BME280;27244;59.940;30.280;2023-04-08T11:56:21;102576.03;;;24.45;27.26
41513;BME280;27244;59.940;30.280;2023-04-08T11:58:49;102571.59;;;24.47;27.25
41513;BME280;27244;59.940;30.280;2023-04-08T12:01:16;102568.78;;;24.47;27.17
41513;BME280;27244;59.940;30.280;2023-04-08T12:03:54;102561.50;;;24.54;27.15
41513;BME280;27244;59.940;30.280;2023-04-08T12:06:21;102555.50;;;24.44;27.64
41513;BME280;27244;59.940;30.280;2023-04-08T12:08:50;102570.38;;;24.52;27.69
41513;BME280;27244;59.940;30.280;2023-04-08T12:11:17;102565.53;;;24.49;28.32
41513;BME280;27244;59.940;30.280;2023-04-08T12:13:44;102557.09;;;24.53;28.20
41513;BME280;27244;59.940;30.280;2023-04-08T12:16:11;102560.31;;;24.51;28.13
41513;BME280;27244;59.940;30.280;2023-04-08T12:18:38;102561.09;;;24.52;28.11
41513;BME280;27244;59.940;30.280;2023-04-08T12:21:06;102559.47;;;24.54;27.94
41513;BME280;27244;59.940;30.280;2023-04-08T12:23:33;102557.88;;;24.53;28.23
41513;BME280;27244;59.940;30.280;2023-04-08T12:26:01;102558.69;;;24.54;28.16
41513;BME280;27244;59.940;30.280;2023-04-08T12:28:29;102553.47;;;24.52;28.33
41513;BME280;27244;59.940;30.280;2023-04-08T12:30:55;102549.41;;;24.53;28.41
41513;BME280;27244;59.940;30.280;2023-04-08T12:33:22;102550.22;;;24.50;28.75
41513;BME280;27244;59.940;30.280;2023-04-08T12:35:50;102562.72;;;24.53;28.69
41513;BME280;27244;59.940;30.280;2023-04-08T12:38:17;102553.84;;;24.54;28.80
41513;BME280;27244;59.940;30.280;2023-04-08T12:40:44;102545.38;;;24.50;29.00
41513;BME280;27244;59.940;30.280;2023-04-08T12:43:12;102536.53;;;24.48;28.89
41513;BME280;27244;59.940;30.280;2023-04-08T12:45:40;102536.09;;;24.54;29.19